KACV/ACV METAR and TAF weather

Enter ICAO airport designator
Station Type Date Time Source
KACV METAR 2020/02/26 09:53 UTC NOAA

KACV 260953Z AUTO 09003KT 10SM CLR 04/03 A3039 RMK AO2 SLP299 T00440033


Station Type Date Time Source
KACV Decoded METAR 2020/02/26 09:53 UTC NOAA

ARCATA/EUREKA ARCATA AIRPORT, CA, United States (KACV) 40-59N 124-06W 67M
Feb 26, 2020 - 04:53 AM EST / 2020.02.26 0953 UTC
Wind: from the E (090 degrees) at 3 MPH (3 KT):0
Visibility: 10 mile(s):0
Sky conditions: clear
Temperature: 39.9 F (4.4 C)
Dew Point: 37.9 F (3.3 C)
Relative Humidity: 92%
Pressure (altimeter): 30.39 in. Hg (1029 hPa)
ob: KACV 260953Z AUTO 09003KT 10SM CLR 04/03 A3039 RMK AO2 SLP299 T00440033
cycle: 10

Station Type Date Time Source
KACV TAF 2020/02/26 06:34 UTC NOAA

TAF KACV 260532Z 2606/2706 00000KT P6SM SKC
FM261000 01002KT 1/4SM FG FEW005
FM261700 31002KT P6SM SCT250
FM262100 31006KT P6SM SKC

Example: see airport list